createdAt,value
2023-03-23T00:00:59.417Z,0.00
2023-03-23T00:01:59.483Z,0.00
2023-03-23T00:02:59.405Z,0.00
2023-03-23T00:03:59.436Z,0.00
2023-03-23T00:04:59.433Z,0.00
2023-03-23T00:05:59.445Z,0.00
2023-03-23T00:06:59.373Z,0.00
2023-03-23T00:07:59.403Z,0.00
2023-03-23T00:08:59.340Z,0.00
2023-03-23T00:09:59.332Z,0.00
2023-03-23T00:10:59.323Z,0.00
2023-03-23T00:11:59.303Z,0.00
2023-03-23T00:12:59.364Z,0.00
2023-03-23T00:13:59.304Z,0.00
2023-03-23T00:14:59.333Z,0.00
2023-03-23T00:15:59.249Z,0.00
2023-03-23T00:17:00.253Z,0.00
2023-03-23T00:17:59.303Z,0.00
2023-03-23T00:18:59.224Z,0.00
2023-03-23T00:19:59.197Z,0.00
2023-03-23T00:20:59.213Z,0.00
2023-03-23T00:21:59.207Z,0.00
2023-03-23T00:22:59.268Z,0.00
2023-03-23T00:23:59.194Z,0.00
2023-03-23T00:24:59.177Z,0.00
2023-03-23T00:25:59.153Z,0.00
2023-03-23T00:26:59.162Z,0.00
2023-03-23T00:27:59.184Z,0.00
2023-03-23T00:28:59.119Z,0.00
2023-03-23T00:29:59.117Z,0.00
2023-03-23T00:30:59.088Z,0.00
2023-03-23T00:31:59.082Z,0.00
2023-03-23T00:32:59.145Z,0.00
2023-03-23T00:33:59.068Z,0.00
2023-03-23T00:34:59.062Z,0.00
2023-03-23T00:35:59.095Z,0.00
2023-03-23T00:36:59.029Z,0.00
2023-03-23T00:37:59.093Z,0.00
2023-03-23T00:38:59.026Z,0.00
2023-03-23T00:39:59.002Z,0.00
2023-03-23T00:40:58.978Z,0.00
2023-03-23T00:41:58.979Z,0.00
2023-03-23T00:42:59.038Z,0.00
2023-03-23T00:43:58.975Z,0.00
2023-03-23T00:44:58.953Z,0.00
2023-03-23T00:45:58.938Z,0.00
2023-03-23T00:46:58.930Z,0.00
2023-03-23T00:47:58.923Z,0.00
2023-03-23T00:48:58.964Z,0.00
2023-03-23T00:49:58.889Z,0.00
2023-03-23T00:50:58.882Z,0.00
2023-03-23T00:51:58.860Z,0.00
2023-03-23T00:52:58.927Z,0.00
2023-03-23T00:53:58.879Z,0.00
2023-03-23T00:54:58.906Z,0.00
2023-03-23T00:55:58.830Z,0.00
2023-03-23T00:56:58.826Z,0.00
2023-03-23T00:57:58.812Z,0.00
2023-03-23T00:58:58.808Z,0.00
2023-03-23T00:59:58.887Z,0.00
2023-03-23T01:00:59.771Z,0.00
2023-03-23T01:01:58.758Z,0.00
2023-03-23T01:02:58.749Z,0.00
2023-03-23T01:03:58.746Z,0.00
2023-03-23T01:04:58.791Z,0.00
2023-03-23T01:05:58.714Z,0.00
2023-03-23T01:06:58.714Z,0.00
2023-03-23T01:07:58.703Z,0.00
2023-03-23T01:08:58.674Z,0.00
2023-03-23T01:09:58.750Z,0.00
2023-03-23T01:10:58.762Z,0.00
2023-03-23T01:11:58.662Z,0.00
2023-03-23T01:12:58.647Z,0.00
2023-03-23T01:13:58.657Z,0.00
2023-03-23T01:14:58.623Z,0.00
2023-03-23T01:15:58.615Z,0.00
2023-03-23T01:16:58.662Z,0.00
2023-03-23T01:17:58.592Z,0.00
2023-03-23T01:18:58.593Z,0.00
2023-03-23T01:19:58.582Z,0.00
2023-03-23T01:20:58.551Z,0.00
2023-03-23T01:21:58.603Z,0.00
2023-03-23T01:22:58.528Z,0.00
2023-03-23T01:23:58.588Z,0.00
2023-03-23T01:24:58.516Z,0.00
2023-03-23T01:25:58.499Z,0.00
2023-03-23T01:26:58.575Z,0.00
2023-03-23T01:27:58.465Z,0.00
2023-03-23T01:28:58.466Z,0.00
2023-03-23T01:29:58.486Z,0.00
2023-03-23T01:30:58.525Z,0.00
2023-03-23T01:31:58.451Z,0.00
2023-03-23T01:32:58.435Z,0.00
2023-03-23T01:33:58.432Z,0.00
2023-03-23T01:34:58.402Z,0.00
2023-03-23T01:35:58.613Z,0.00
2023-03-23T01:36:58.500Z,0.00
2023-03-23T01:37:58.612Z,0.00
2023-03-23T01:39:19.347Z,0.00
2023-03-23T01:39:58.619Z,0.00
2023-03-23T01:40:58.809Z,0.00
2023-03-23T01:41:58.577Z,0.00
2023-03-23T01:42:58.595Z,0.00
2023-03-23T01:43:58.361Z,0.00
2023-03-23T01:44:58.455Z,0.00
2023-03-23T01:45:58.344Z,0.00
2023-03-23T01:46:58.285Z,0.00
2023-03-23T01:47:58.339Z,0.00
2023-03-23T01:48:58.257Z,0.00
2023-03-23T01:49:58.238Z,0.00
2023-03-23T01:50:58.232Z,0.00
2023-03-23T01:51:58.213Z,0.00
2023-03-23T01:52:58.206Z,0.00
2023-03-23T01:53:58.265Z,0.00
2023-03-23T01:54:58.192Z,0.00
2023-03-23T01:55:59.578Z,0.00
2023-03-23T01:56:58.169Z,0.00
2023-03-23T01:57:58.170Z,0.00
2023-03-23T01:58:58.210Z,0.00
2023-03-23T01:59:58.142Z,0.00
2023-03-23T02:00:58.137Z,0.00
2023-03-23T02:01:58.130Z,0.00
2023-03-23T02:02:58.099Z,0.00
2023-03-23T02:03:58.172Z,0.00
2023-03-23T02:04:58.091Z,0.00
2023-03-23T02:05:58.140Z,0.00
2023-03-23T02:06:58.093Z,0.00
2023-03-23T02:07:58.059Z,0.00
2023-03-23T02:08:58.229Z,0.00
2023-03-23T02:09:59.033Z,0.00
2023-03-23T02:10:58.014Z,0.00
2023-03-23T02:11:58.009Z,0.00
2023-03-23T02:12:58.014Z,0.00
2023-03-23T02:13:58.064Z,0.00
2023-03-23T02:14:57.971Z,0.00
2023-03-23T02:15:57.958Z,0.00
2023-03-23T02:16:57.973Z,0.00
2023-03-23T02:17:57.943Z,0.00
2023-03-23T02:18:57.981Z,0.00
2023-03-23T02:19:57.918Z,0.00
2023-03-23T02:20:57.911Z,0.00
2023-03-23T02:21:57.899Z,0.00
2023-03-23T02:22:57.896Z,0.00
2023-03-23T02:23:57.965Z,0.00
2023-03-23T02:24:57.876Z,0.00
2023-03-23T02:25:57.857Z,0.00
2023-03-23T02:26:57.859Z,0.00
2023-03-23T02:27:57.852Z,0.00
2023-03-23T02:28:57.905Z,0.00
2023-03-23T02:29:57.834Z,0.00
2023-03-23T02:30:57.787Z,0.00
2023-03-23T02:31:57.814Z,0.00
2023-03-23T02:32:57.800Z,0.00
2023-03-23T02:33:57.777Z,0.00
2023-03-23T02:34:57.813Z,0.00
2023-03-23T02:35:57.769Z,0.00
2023-03-23T02:36:57.760Z,0.00
2023-03-23T02:37:57.754Z,0.00
2023-03-23T02:38:57.783Z,0.00
2023-03-23T02:39:57.776Z,0.00
2023-03-23T02:40:57.698Z,0.00
2023-03-23T02:41:57.751Z,0.00
2023-03-23T02:42:57.678Z,0.00
2023-03-23T02:43:57.652Z,0.00
2023-03-23T02:44:57.708Z,0.00
2023-03-23T02:45:57.657Z,0.00
2023-03-23T02:46:57.636Z,0.00
2023-03-23T02:47:57.619Z,0.00
2023-03-23T02:48:57.616Z,0.00
2023-03-23T02:49:57.662Z,0.00
2023-03-23T02:50:57.569Z,0.00
2023-03-23T02:51:57.559Z,0.00
2023-03-23T02:52:57.575Z,0.00
2023-03-23T02:53:57.680Z,0.00
2023-03-23T02:54:57.599Z,0.00
2023-03-23T02:55:57.561Z,0.00
2023-03-23T02:56:57.573Z,0.00
2023-03-23T02:57:57.504Z,0.00
2023-03-23T02:58:57.567Z,0.00
2023-03-23T02:59:57.485Z,0.00
2023-03-23T03:00:57.500Z,0.00
2023-03-23T03:01:57.490Z,0.00
2023-03-23T03:02:57.521Z,0.00
2023-03-23T03:03:57.445Z,0.00
2023-03-23T03:04:57.437Z,0.00
2023-03-23T03:05:57.415Z,0.00
2023-03-23T03:06:57.410Z,0.00
2023-03-23T03:07:57.464Z,0.00
2023-03-23T03:08:57.388Z,0.00
2023-03-23T03:10:18.368Z,0.00
2023-03-23T03:10:57.376Z,0.00
2023-03-23T03:11:57.372Z,0.00
2023-03-23T03:12:57.451Z,0.00
2023-03-23T03:13:57.333Z,0.00
2023-03-23T03:14:57.332Z,0.00
2023-03-23T03:15:57.303Z,0.00
2023-03-23T03:16:57.372Z,0.00
2023-03-23T03:17:57.356Z,0.00
2023-03-23T03:18:57.273Z,0.00
2023-03-23T03:19:57.272Z,0.00
2023-03-23T03:20:57.263Z,0.00
2023-03-23T03:21:57.240Z,0.00
2023-03-23T03:22:57.287Z,0.00
2023-03-23T03:23:57.221Z,0.00
2023-03-23T03:24:57.217Z,0.00
2023-03-23T03:25:57.207Z,0.00
2023-03-23T03:26:57.201Z,0.00
2023-03-23T03:27:57.246Z,0.00
2023-03-23T03:28:57.185Z,0.00
2023-03-23T03:29:57.176Z,0.00
2023-03-23T03:30:57.143Z,0.00
2023-03-23T03:31:57.136Z,0.00
2023-03-23T03:32:57.188Z,0.00
2023-03-23T03:33:57.138Z,0.00
2023-03-23T03:34:57.112Z,0.00
2023-03-23T03:35:57.163Z,0.00
2023-03-23T03:36:57.087Z,0.00
2023-03-23T03:37:57.147Z,0.00
2023-03-23T03:38:57.061Z,0.00
2023-03-23T03:39:57.057Z,0.00
2023-03-23T03:40:57.056Z,0.00
2023-03-23T03:41:57.037Z,0.00
2023-03-23T03:42:57.073Z,0.00
2023-03-23T03:43:57.017Z,0.00
2023-03-23T03:44:56.990Z,0.00
2023-03-23T03:45:56.978Z,0.00
2023-03-23T03:46:56.985Z,0.00
2023-03-23T03:47:57.037Z,0.00
2023-03-23T03:48:56.958Z,0.00
2023-03-23T03:49:56.964Z,0.00
2023-03-23T03:50:56.942Z,0.00
2023-03-23T03:51:56.938Z,0.00
2023-03-23T03:52:56.996Z,0.00
2023-03-23T03:53:57.130Z,0.00
2023-03-23T03:54:56.915Z,0.00
2023-03-23T03:55:56.886Z,0.00
2023-03-23T03:56:56.892Z,0.00
2023-03-23T03:57:56.910Z,0.00
2023-03-23T03:58:57.042Z,0.00
2023-03-23T03:59:57.898Z,0.00
2023-03-23T04:00:56.848Z,0.00
2023-03-23T04:01:56.811Z,0.00
2023-03-23T04:02:56.806Z,0.00
2023-03-23T04:03:56.805Z,0.00
2023-03-23T04:04:56.847Z,0.00
2023-03-23T04:05:58.403Z,0.00
2023-03-23T04:06:56.767Z,0.00
2023-03-23T04:07:56.757Z,0.00
2023-03-23T04:09:07.703Z,0.00
2023-03-23T04:09:57.729Z,0.00
2023-03-23T04:10:56.872Z,0.00
2023-03-23T04:11:56.722Z,0.00
2023-03-23T04:12:56.708Z,0.00
2023-03-23T04:13:56.696Z,0.00
2023-03-23T04:14:56.671Z,0.00
2023-03-23T04:16:08.719Z,0.00
2023-03-23T04:16:57.660Z,0.00
2023-03-23T04:17:56.668Z,0.00
2023-03-23T04:18:56.649Z,0.00
2023-03-23T04:19:56.840Z,0.00
2023-03-23T04:20:56.672Z,0.00
2023-03-23T04:21:57.610Z,0.00
2023-03-23T04:22:56.580Z,0.00
2023-03-23T04:23:56.576Z,0.00
2023-03-23T04:24:57.081Z,0.00
2023-03-23T04:25:56.617Z,0.00
2023-03-23T04:26:56.541Z,0.00
2023-03-23T04:27:58.696Z,0.00
2023-03-23T04:28:56.527Z,0.00
2023-03-23T04:29:56.528Z,0.00
2023-03-23T04:30:56.573Z,0.00
2023-03-23T04:31:56.497Z,0.00
2023-03-23T04:32:56.483Z,0.00
2023-03-23T04:33:59.740Z,0.00
2023-03-23T04:34:56.452Z,0.00
2023-03-23T04:35:57.527Z,0.00
2023-03-23T04:36:57.340Z,0.00
2023-03-23T04:37:56.450Z,0.00
2023-03-23T04:38:56.412Z,0.00
2023-03-23T04:39:56.407Z,0.00
2023-03-23T04:40:56.465Z,0.00
2023-03-23T04:41:56.458Z,0.00
2023-03-23T04:42:56.371Z,0.00
2023-03-23T04:43:56.361Z,0.00
2023-03-23T04:44:56.367Z,0.00
2023-03-23T04:45:56.411Z,0.00
2023-03-23T04:46:56.338Z,0.00
2023-03-23T04:47:56.329Z,0.00
2023-03-23T04:48:56.323Z,0.00
2023-03-23T04:49:56.304Z,0.00
2023-03-23T04:50:56.354Z,0.00
2023-03-23T04:51:56.274Z,0.00
2023-03-23T04:52:56.279Z,0.00
2023-03-23T04:53:56.285Z,0.00
2023-03-23T04:54:56.257Z,0.00
2023-03-23T04:55:56.298Z,0.00
2023-03-23T04:56:56.221Z,0.00
2023-03-23T04:57:56.228Z,0.00
2023-03-23T04:58:56.210Z,0.00
2023-03-23T04:59:56.189Z,0.00
2023-03-23T05:00:56.253Z,0.00
2023-03-23T05:02:14.619Z,0.00
2023-03-23T05:02:57.159Z,0.00
2023-03-23T05:03:57.178Z,0.00
2023-03-23T05:04:58.406Z,0.00
2023-03-23T05:05:56.206Z,0.00
2023-03-23T05:06:56.128Z,0.00
2023-03-23T05:07:57.791Z,4.00
2023-03-23T05:08:56.099Z,0.00
2023-03-23T05:09:56.111Z,4.00
2023-03-23T05:10:56.094Z,4.00
2023-03-23T05:11:56.128Z,4.00
2023-03-23T05:12:56.057Z,4.00
2023-03-23T05:13:56.109Z,4.00
2023-03-23T05:14:56.046Z,8.00
2023-03-23T05:15:56.016Z,8.00
2023-03-23T05:16:56.025Z,8.00
2023-03-23T05:17:55.996Z,8.00
2023-03-23T05:18:56.031Z,8.00
2023-03-23T05:19:56.004Z,8.00
2023-03-23T05:20:55.967Z,12.00
2023-03-23T05:21:56.029Z,12.00
2023-03-23T05:22:55.947Z,8.00
2023-03-23T05:23:56.019Z,12.00
2023-03-23T05:24:55.939Z,20.00
2023-03-23T05:25:55.922Z,20.00
2023-03-23T05:26:56.009Z,20.00
2023-03-23T05:27:55.886Z,24.00
2023-03-23T05:28:55.883Z,24.00
2023-03-23T05:29:56.878Z,24.00
2023-03-23T05:30:55.867Z,20.00
2023-03-23T05:31:55.916Z,24.00
2023-03-23T05:32:55.921Z,32.00
2023-03-23T05:33:55.825Z,32.00
2023-03-23T05:34:55.817Z,32.00
2023-03-23T05:35:55.855Z,36.00
2023-03-23T05:36:55.795Z,40.00
2023-03-23T05:37:55.845Z,48.00
2023-03-23T05:38:56.770Z,64.00
2023-03-23T05:39:55.785Z,76.00
2023-03-23T05:40:55.764Z,124.00
2023-03-23T05:41:55.788Z,136.00
2023-03-23T05:42:55.791Z,164.00
2023-03-23T05:43:55.725Z,180.00
2023-03-23T05:44:55.705Z,172.00
2023-03-23T05:45:55.687Z,156.00
2023-03-23T05:46:55.683Z,108.00
2023-03-23T05:47:55.746Z,96.00
2023-03-23T05:48:55.665Z,108.00
2023-03-23T05:49:55.657Z,132.00
2023-03-23T05:50:55.638Z,128.00
2023-03-23T05:51:55.630Z,140.00
2023-03-23T05:52:55.696Z,156.00
2023-03-23T05:53:55.677Z,188.00
2023-03-23T05:54:55.840Z,212.00
2023-03-23T05:55:55.621Z,232.00
2023-03-23T05:56:55.570Z,252.00
2023-03-23T05:57:55.589Z,276.00
2023-03-23T05:58:55.622Z,304.00
2023-03-23T05:59:55.559Z,328.00
2023-03-23T06:00:55.540Z,344.00
2023-03-23T06:01:55.536Z,360.00
2023-03-23T06:02:55.509Z,376.00
2023-03-23T06:03:55.565Z,392.00
2023-03-23T06:04:55.495Z,404.00
2023-03-23T06:05:55.485Z,428.00
2023-03-23T06:06:55.468Z,456.00
2023-03-23T06:07:55.456Z,484.00
2023-03-23T06:08:55.535Z,516.00
2023-03-23T06:09:55.447Z,556.00
2023-03-23T06:10:55.436Z,616.00
2023-03-23T06:11:55.427Z,696.00
2023-03-23T06:12:55.397Z,764.00
2023-03-23T06:13:55.428Z,752.00
2023-03-23T06:14:55.484Z,752.00
2023-03-23T06:15:55.376Z,692.00
2023-03-23T06:16:55.397Z,604.00
2023-03-23T06:17:55.356Z,532.00
2023-03-23T06:18:55.339Z,452.00
2023-03-23T06:19:55.396Z,388.00
2023-03-23T06:20:55.417Z,320.00
2023-03-23T06:21:55.313Z,308.00
2023-03-23T06:22:55.320Z,332.00
2023-03-23T06:23:55.287Z,376.00
2023-03-23T06:24:55.335Z,404.00
2023-03-23T06:25:55.337Z,416.00
2023-03-23T06:26:56.275Z,468.00
2023-03-23T06:27:55.330Z,540.00
2023-03-23T06:28:55.235Z,540.00
2023-03-23T06:29:55.390Z,568.00
2023-03-23T06:30:55.274Z,560.00
2023-03-23T06:31:55.208Z,644.00
2023-03-23T06:32:55.266Z,672.00
2023-03-23T06:33:55.189Z,664.00
2023-03-23T06:34:55.177Z,692.00
2023-03-23T06:35:55.195Z,728.00
2023-03-23T06:36:55.166Z,772.00
2023-03-23T06:37:55.217Z,832.00
2023-03-23T06:38:55.220Z,900.00
2023-03-23T06:39:55.105Z,964.00
2023-03-23T06:40:55.112Z,976.00
2023-03-23T06:41:55.099Z,1008.00
2023-03-23T06:42:55.088Z,992.00
2023-03-23T06:43:55.080Z,972.00
2023-03-23T06:44:55.234Z,940.00
2023-03-23T06:45:55.141Z,1004.00
2023-03-23T06:46:55.052Z,1104.00
2023-03-23T06:47:55.039Z,1156.00
2023-03-23T06:48:55.033Z,1344.00
2023-03-23T06:49:55.083Z,1656.00
2023-03-23T06:50:55.001Z,2004.00
2023-03-23T06:51:54.991Z,2228.00
2023-03-23T06:52:54.974Z,2396.00
2023-03-23T06:53:55.037Z,2488.00
2023-03-23T06:54:54.951Z,2220.00
2023-03-23T06:55:54.947Z,1928.00
2023-03-23T06:56:54.931Z,1804.00
2023-03-23T06:57:54.942Z,2044.00
2023-03-23T06:58:54.934Z,2128.00
2023-03-23T06:59:54.966Z,2116.00
2023-03-23T07:00:54.960Z,2244.00
2023-03-23T07:01:54.900Z,2112.00
2023-03-23T07:02:54.881Z,2404.00
2023-03-23T07:03:54.878Z,2892.00
2023-03-23T07:04:54.858Z,2892.00
2023-03-23T07:05:54.925Z,2456.00
2023-03-23T07:06:54.841Z,2148.00
2023-03-23T07:07:54.826Z,1960.00
2023-03-23T07:08:54.848Z,1724.00
2023-03-23T07:09:54.802Z,1860.00
2023-03-23T07:10:54.850Z,1956.00
2023-03-23T07:11:54.831Z,1768.00
2023-03-23T07:12:54.768Z,1984.00
2023-03-23T07:13:54.756Z,2100.00
2023-03-23T07:14:54.749Z,2204.00
2023-03-23T07:15:54.739Z,2332.00
2023-03-23T07:16:54.795Z,2412.00
2023-03-23T07:17:54.730Z,2540.00
2023-03-23T07:18:54.719Z,2616.00
2023-03-23T07:19:54.697Z,2624.00
2023-03-23T07:20:54.770Z,2472.00
2023-03-23T07:21:54.676Z,2424.00
2023-03-23T07:22:54.680Z,2480.00
2023-03-23T07:23:54.722Z,2492.00
2023-03-23T07:24:54.660Z,2348.00
2023-03-23T07:25:54.641Z,2232.00
2023-03-23T07:26:54.629Z,1928.00
2023-03-23T07:27:54.617Z,1952.00
2023-03-23T07:28:56.781Z,2072.00
2023-03-23T07:29:54.589Z,2292.00
2023-03-23T07:30:54.575Z,2372.00
2023-03-23T07:31:54.579Z,2380.00
2023-03-23T07:32:54.681Z,2360.00
2023-03-23T07:33:54.582Z,2312.00
2023-03-23T07:34:54.540Z,2444.00
2023-03-23T07:35:54.574Z,2612.00
2023-03-23T07:36:54.522Z,2192.00
2023-03-23T07:37:54.578Z,2356.00
2023-03-23T07:38:55.498Z,2036.00
2023-03-23T07:39:54.485Z,2468.00
2023-03-23T07:40:54.469Z,2592.00
2023-03-23T07:41:54.454Z,3016.00
2023-03-23T07:42:54.511Z,3220.00
2023-03-23T07:43:54.460Z,3288.00
2023-03-23T07:44:54.427Z,3348.00
2023-03-23T07:45:54.417Z,3204.00
2023-03-23T07:46:54.409Z,3188.00
2023-03-23T07:47:54.467Z,3292.00
2023-03-23T07:48:54.416Z,2916.00
2023-03-23T07:49:54.380Z,2536.00
2023-03-23T07:50:54.377Z,1320.00
2023-03-23T07:51:54.356Z,972.00
2023-03-23T07:52:54.347Z,788.00
2023-03-23T07:53:54.422Z,588.00
2023-03-23T07:54:54.312Z,712.00
2023-03-23T07:55:54.314Z,816.00
2023-03-23T07:56:54.351Z,1008.00
2023-03-23T07:57:54.287Z,1028.00
2023-03-23T07:58:54.330Z,868.00
2023-03-23T07:59:54.266Z,980.00
2023-03-23T08:00:54.254Z,1128.00
2023-03-23T08:01:54.316Z,1232.00
2023-03-23T08:02:54.273Z,1152.00
2023-03-23T08:03:54.235Z,1216.00
2023-03-23T08:04:54.204Z,1208.00
2023-03-23T08:05:54.214Z,1340.00
2023-03-23T08:06:54.246Z,1504.00
2023-03-23T08:07:54.194Z,1712.00
2023-03-23T08:08:56.399Z,2320.00
2023-03-23T08:09:54.157Z,1724.00
2023-03-23T08:10:54.154Z,1708.00
2023-03-23T08:11:54.217Z,2336.00
2023-03-23T08:12:54.128Z,2992.00
2023-03-23T08:13:54.178Z,2836.00
2023-03-23T08:14:54.260Z,2240.00
2023-03-23T08:15:54.091Z,2836.00
2023-03-23T08:16:54.144Z,1800.00
2023-03-23T08:17:54.073Z,1720.00
2023-03-23T08:18:54.077Z,1784.00
2023-03-23T08:19:54.109Z,1296.00
2023-03-23T08:20:54.438Z,960.00
2023-03-23T08:21:54.110Z,1072.00
2023-03-23T08:22:54.013Z,960.00
2023-03-23T08:23:54.004Z,784.00
2023-03-23T08:24:54.012Z,808.00
2023-03-23T08:25:53.973Z,624.00
2023-03-23T08:26:53.978Z,596.00
2023-03-23T08:27:54.107Z,848.00
2023-03-23T08:28:53.968Z,840.00
2023-03-23T08:29:53.945Z,1352.00
2023-03-23T08:30:53.983Z,1236.00
2023-03-23T08:31:53.917Z,1304.00
2023-03-23T08:32:53.903Z,1184.00
2023-03-23T08:33:53.903Z,2120.00
2023-03-23T08:34:53.896Z,2352.00
2023-03-23T08:35:53.973Z,2432.00
2023-03-23T08:36:53.879Z,2136.00
2023-03-23T08:37:54.336Z,1848.00
2023-03-23T08:38:53.843Z,2340.00
2023-03-23T08:39:53.882Z,3896.00
2023-03-23T08:40:53.821Z,4432.00
2023-03-23T08:41:53.802Z,3756.00
2023-03-23T08:43:00.873Z,4004.00
2023-03-23T08:43:54.954Z,4508.00
2023-03-23T08:44:53.829Z,4048.00
2023-03-23T08:45:53.768Z,4956.00
2023-03-23T08:46:53.792Z,4368.00
2023-03-23T08:47:53.960Z,4276.00
2023-03-23T08:48:53.774Z,3532.00
2023-03-23T08:49:53.746Z,3468.00
2023-03-23T08:50:53.717Z,3080.00
2023-03-23T08:51:53.720Z,2748.00
2023-03-23T08:52:53.798Z,2800.00
2023-03-23T08:53:53.719Z,2324.00
2023-03-23T08:54:53.687Z,1812.00
2023-03-23T08:55:53.723Z,2032.00
2023-03-23T08:56:53.674Z,2140.00
2023-03-23T08:57:53.656Z,1888.00
2023-03-23T08:58:53.695Z,2024.00
2023-03-23T08:59:53.627Z,2096.00
2023-03-23T09:00:53.662Z,2324.00
2023-03-23T09:01:53.588Z,1808.00
2023-03-23T09:02:53.616Z,1944.00
2023-03-23T09:03:53.566Z,2224.00
2023-03-23T09:04:53.580Z,2092.00
2023-03-23T09:05:53.533Z,2412.00
2023-03-23T09:06:53.617Z,2656.00
2023-03-23T09:07:53.541Z,2408.00
2023-03-23T09:08:53.543Z,1744.00
2023-03-23T09:09:53.520Z,1780.00
2023-03-23T09:10:53.501Z,1692.00
2023-03-23T09:11:53.549Z,2092.00
2023-03-23T09:12:53.480Z,2824.00
2023-03-23T09:13:53.467Z,2704.00
2023-03-23T09:14:53.449Z,2812.00
2023-03-23T09:15:55.545Z,2516.00
2023-03-23T09:16:53.490Z,2324.00
2023-03-23T09:17:53.439Z,2920.00
2023-03-23T09:18:53.452Z,3276.00
2023-03-23T09:19:53.474Z,3020.00
2023-03-23T09:20:53.466Z,2428.00
2023-03-23T09:21:53.396Z,2188.00
2023-03-23T09:22:54.004Z,2724.00
2023-03-23T09:23:53.357Z,2752.00
2023-03-23T09:24:53.421Z,2456.00
2023-03-23T09:25:53.498Z,2308.00
2023-03-23T09:26:53.343Z,2376.00
2023-03-23T09:27:53.317Z,2324.00
2023-03-23T09:28:53.340Z,2456.00
2023-03-23T09:29:53.302Z,2564.00
2023-03-23T09:30:53.826Z,2340.00
2023-03-23T09:31:54.740Z,1636.00
2023-03-23T09:32:53.268Z,1660.00
2023-03-23T09:33:53.333Z,1712.00
2023-03-23T09:34:53.289Z,1640.00
2023-03-23T09:35:53.327Z,1356.00
2023-03-23T09:36:53.265Z,1196.00
2023-03-23T09:37:53.738Z,972.00
2023-03-23T09:38:53.208Z,864.00
2023-03-23T09:39:53.209Z,816.00
2023-03-23T09:40:54.262Z,864.00
2023-03-23T09:41:53.183Z,1048.00
2023-03-23T09:42:54.391Z,984.00
2023-03-23T09:43:53.149Z,924.00
2023-03-23T09:44:53.147Z,908.00
2023-03-23T09:45:53.227Z,1056.00
2023-03-23T09:46:53.128Z,1220.00
2023-03-23T09:47:53.112Z,1528.00
2023-03-23T09:48:53.100Z,1852.00
2023-03-23T09:49:53.097Z,1812.00
2023-03-23T09:50:53.160Z,1460.00
2023-03-23T09:51:53.077Z,1060.00
2023-03-23T09:52:53.063Z,824.00
2023-03-23T09:53:53.048Z,628.00
2023-03-23T09:54:53.100Z,672.00
2023-03-23T09:55:53.136Z,772.00
2023-03-23T09:56:53.017Z,788.00
2023-03-23T09:57:53.034Z,764.00
2023-03-23T09:58:52.999Z,884.00
2023-03-23T09:59:52.990Z,1000.00
2023-03-23T10:00:53.091Z,1240.00
2023-03-23T10:01:52.958Z,1272.00
2023-03-23T10:02:52.962Z,1244.00
2023-03-23T10:03:52.934Z,1264.00
2023-03-23T10:04:52.940Z,1312.00
2023-03-23T10:05:52.978Z,1096.00
2023-03-23T10:06:52.926Z,736.00
2023-03-23T10:07:52.879Z,904.00
2023-03-23T10:08:57.056Z,1636.00
2023-03-23T10:09:52.953Z,1212.00
2023-03-23T10:10:52.861Z,792.00
2023-03-23T10:11:52.859Z,720.00
2023-03-23T10:12:53.497Z,620.00
2023-03-23T10:13:52.849Z,664.00
2023-03-23T10:14:52.850Z,612.00
2023-03-23T10:15:52.861Z,580.00
2023-03-23T10:16:52.793Z,660.00
2023-03-23T10:17:52.830Z,832.00
2023-03-23T10:18:52.783Z,1068.00
2023-03-23T10:19:52.754Z,1320.00
2023-03-23T10:20:52.941Z,1464.00
2023-03-23T10:21:52.735Z,2076.00
2023-03-23T10:22:52.740Z,2424.00
2023-03-23T10:23:52.717Z,2696.00
2023-03-23T10:24:52.715Z,2916.00
2023-03-23T10:25:52.781Z,3096.00
2023-03-23T10:26:52.837Z,3224.00
2023-03-23T10:27:52.683Z,3200.00
2023-03-23T10:28:52.672Z,3172.00
2023-03-23T10:29:52.666Z,3404.00
2023-03-23T10:30:52.722Z,3240.00
2023-03-23T10:31:52.653Z,3060.00
2023-03-23T10:32:52.639Z,3132.00
2023-03-23T10:33:52.613Z,3332.00
2023-03-23T10:34:52.704Z,3444.00
2023-03-23T10:35:52.782Z,3496.00
2023-03-23T10:36:52.589Z,3620.00
2023-03-23T10:37:52.582Z,3884.00
2023-03-23T10:38:52.577Z,4080.00
2023-03-23T10:39:52.552Z,4252.00
2023-03-23T10:40:52.617Z,4232.00
2023-03-23T10:41:52.546Z,3500.00
2023-03-23T10:42:52.510Z,2776.00
2023-03-23T10:43:52.504Z,2268.00
2023-03-23T10:44:52.528Z,1948.00
2023-03-23T10:46:00.568Z,2160.00
2023-03-23T10:46:53.483Z,2376.00
2023-03-23T10:47:52.471Z,2724.00
2023-03-23T10:48:52.457Z,2888.00
2023-03-23T10:49:52.452Z,2896.00
2023-03-23T10:50:52.453Z,3252.00
2023-03-23T10:51:52.493Z,4124.00
2023-03-23T10:52:52.514Z,4888.00
2023-03-23T10:53:52.405Z,4744.00
2023-03-23T10:54:52.402Z,4816.00
2023-03-23T10:55:52.401Z,4568.00
2023-03-23T10:56:59.661Z,4560.00
2023-03-23T10:57:53.367Z,4264.00
2023-03-23T10:58:52.362Z,4008.00
2023-03-23T10:59:52.405Z,3404.00
2023-03-23T11:00:52.346Z,3048.00
2023-03-23T11:01:52.539Z,2764.00
2023-03-23T11:03:05.145Z,2368.00
2023-03-23T11:03:52.894Z,2204.00
2023-03-23T11:04:53.180Z,2160.00
2023-03-23T11:05:52.663Z,2544.00
2023-03-23T11:06:52.286Z,3208.00
2023-03-23T11:07:52.529Z,3104.00
2023-03-23T11:08:52.446Z,2840.00
2023-03-23T11:09:52.617Z,3424.00
2023-03-23T11:10:53.053Z,4172.00
2023-03-23T11:11:56.595Z,4276.00
2023-03-23T11:12:53.205Z,3892.00
2023-03-23T11:13:52.255Z,3104.00
2023-03-23T11:14:52.197Z,2488.00
2023-03-23T11:15:52.394Z,2360.00
2023-03-23T11:16:52.159Z,2472.00
2023-03-23T11:17:52.635Z,2684.00
2023-03-23T11:18:52.409Z,4112.00
2023-03-23T11:19:52.295Z,5248.00
2023-03-23T11:20:52.217Z,4864.00
2023-03-23T11:21:52.301Z,4644.00
2023-03-23T11:22:52.092Z,4864.00
2023-03-23T11:24:00.516Z,4660.00
2023-03-23T11:24:53.433Z,4216.00
2023-03-23T11:25:52.187Z,4060.00
2023-03-23T11:26:58.721Z,3708.00
2023-03-23T11:27:54.135Z,3608.00
2023-03-23T11:28:52.066Z,3608.00
2023-03-23T11:29:58.249Z,3536.00
2023-03-23T11:30:53.089Z,3244.00
2023-03-23T11:31:52.530Z,3176.00
2023-03-23T11:32:52.226Z,3184.00
2023-03-23T11:34:03.794Z,2880.00
2023-03-23T11:34:52.979Z,2740.00
2023-03-23T11:35:52.534Z,2944.00
2023-03-23T11:36:51.970Z,3016.00
2023-03-23T11:37:52.103Z,3184.00
2023-03-23T11:38:51.929Z,3156.00
2023-03-23T11:39:52.044Z,3020.00
2023-03-23T11:40:51.910Z,3036.00
2023-03-23T11:42:03.418Z,3324.00
2023-03-23T11:42:52.889Z,3572.00
2023-03-23T11:43:51.910Z,3552.00
2023-03-23T11:44:52.179Z,3908.00
2023-03-23T11:45:51.883Z,4276.00
2023-03-23T11:46:51.899Z,4224.00
2023-03-23T11:47:51.833Z,3788.00
2023-03-23T11:48:51.835Z,3184.00
2023-03-23T11:49:51.904Z,2972.00
2023-03-23T11:50:51.791Z,2868.00
2023-03-23T11:51:51.806Z,2724.00
2023-03-23T11:52:51.779Z,2464.00
2023-03-23T11:53:51.763Z,2404.00
2023-03-23T11:54:51.779Z,2664.00
2023-03-23T11:55:51.887Z,3096.00
2023-03-23T11:56:51.724Z,4012.00
2023-03-23T11:57:51.731Z,4720.00
2023-03-23T11:58:51.715Z,5592.00
2023-03-23T11:59:51.774Z,5352.00
2023-03-23T12:00:51.702Z,4396.00
2023-03-23T12:01:51.703Z,4148.00
2023-03-23T12:02:51.684Z,4004.00
2023-03-23T12:03:51.768Z,3132.00
2023-03-23T12:04:51.649Z,3316.00
2023-03-23T12:05:51.724Z,3464.00
2023-03-23T12:06:51.627Z,3852.00
2023-03-23T12:07:51.624Z,2968.00
2023-03-23T12:08:51.604Z,3084.00
2023-03-23T12:09:51.649Z,2896.00
2023-03-23T12:11:51.607Z,2944.00
2023-03-23T12:12:51.595Z,2960.00
2023-03-23T12:13:53.265Z,2812.00
2023-03-23T12:14:52.607Z,2860.00
2023-03-23T12:15:51.535Z,2920.00
2023-03-23T12:16:51.516Z,3088.00
2023-03-23T12:17:51.539Z,3200.00
2023-03-23T12:18:51.624Z,3264.00
2023-03-23T12:19:51.690Z,3544.00
2023-03-23T12:20:51.636Z,3536.00
2023-03-23T12:21:51.514Z,3580.00
2023-03-23T12:22:51.455Z,3676.00
2023-03-23T12:23:51.448Z,4060.00
2023-03-23T12:24:51.481Z,3560.00
2023-03-23T12:25:51.492Z,3524.00
2023-03-23T12:26:51.420Z,3372.00
2023-03-23T12:27:51.397Z,3360.00
2023-03-23T12:28:51.395Z,3512.00
2023-03-23T12:29:51.385Z,3708.00
2023-03-23T12:30:51.642Z,4028.00
2023-03-23T12:31:51.406Z,4508.00
2023-03-23T12:32:51.357Z,4816.00
2023-03-23T12:33:51.339Z,4832.00
2023-03-23T12:34:51.325Z,4760.00
2023-03-23T12:35:51.396Z,4740.00
2023-03-23T12:36:51.309Z,4664.00
2023-03-23T12:37:51.373Z,4668.00
2023-03-23T12:38:51.286Z,4300.00
2023-03-23T12:39:51.335Z,4036.00
2023-03-23T12:40:51.858Z,3980.00